sensor_id;sensor_type;location;lat;lon;timestamp;pressure;altitude;pressure_sealevel;temperature;humidity
68594;BME280;55563;52.416;13.548;2023-04-08T00:01:51;101663.28;;;4.72;100.00
68594;BME280;55563;52.416;13.548;2023-04-08T00:03:52;101661.09;;;4.69;100.00
68594;BME280;55563;52.416;13.548;2023-04-08T00:05:52;101662.88;;;4.68;100.00
68594;BME280;55563;52.416;13.548;2023-04-08T00:07:53;101661.88;;;4.69;100.00
68594;BME280;55563;52.416;13.548;2023-04-08T00:09:54;101663.47;;;4.70;100.00
68594;BME280;55563;52.416;13.548;2023-04-08T00:11:54;101665.88;;;4.72;100.00
68594;BME280;55563;52.416;13.548;2023-04-08T00:13:56;101661.50;;;4.72;100.00
68594;BME280;55563;52.416;13.548;2023-04-08T00:15:57;101666.28;;;4.69;100.00
68594;BME280;55563;52.416;13.548;2023-04-08T00:17:57;101667.09;;;4.69;100.00
68594;BME280;55563;52.416;13.548;2023-04-08T00:19:58;101667.91;;;4.70;100.00
68594;BME280;55563;52.416;13.548;2023-04-08T00:21:59;101661.66;;;4.64;100.00
68594;BME280;55563;52.416;13.548;2023-04-08T00:24:00;101667.69;;;4.65;100.00
68594;BME280;55563;52.416;13.548;2023-04-08T00:26:01;101665.66;;;4.67;100.00
68594;BME280;55563;52.416;13.548;2023-04-08T00:28:02;101664.25;;;4.64;100.00
68594;BME280;55563;52.416;13.548;2023-04-08T00:30:03;101662.47;;;4.65;100.00
68594;BME280;55563;52.416;13.548;2023-04-08T00:32:03;101669.25;;;4.66;100.00
68594;BME280;55563;52.416;13.548;2023-04-08T00:34:04;101658.47;;;4.69;100.00
68594;BME280;55563;52.416;13.548;2023-04-08T00:36:05;101667.47;;;4.66;100.00
68594;BME280;55563;52.416;13.548;2023-04-08T00:38:06;101666.06;;;4.64;100.00
68594;BME280;55563;52.416;13.548;2023-04-08T00:40:08;101669.06;;;4.67;100.00
68594;BME280;55563;52.416;13.548;2023-04-08T00:42:09;101659.47;;;4.68;100.00
68594;BME280;55563;52.416;13.548;2023-04-08T00:44:10;101659.28;;;4.69;100.00
68594;BME280;55563;52.416;13.548;2023-04-08T00:46:10;101668.44;;;4.65;100.00
68594;BME280;55563;52.416;13.548;2023-04-08T00:48:11;101668.44;;;4.65;100.00
68594;BME280;55563;52.416;13.548;2023-04-08T00:50:12;101666.25;;;4.62;100.00
68594;BME280;55563;52.416;13.548;2023-04-08T00:52:13;101660.84;;;4.64;100.00
68594;BME280;55563;52.416;13.548;2023-04-08T00:54:14;101664.06;;;4.66;100.00
68594;BME280;55563;52.416;13.548;2023-04-08T00:56:14;101662.69;;;4.70;100.00
68594;BME280;55563;52.416;13.548;2023-04-08T00:58:15;101662.28;;;4.73;100.00
68594;BME280;55563;52.416;13.548;2023-04-08T01:00:17;101664.06;;;4.66;100.00
68594;BME280;55563;52.416;13.548;2023-04-08T01:02:29;101670.28;;;4.65;100.00
68594;BME280;55563;52.416;13.548;2023-04-08T01:04:32;101663.88;;;4.67;100.00
68594;BME280;55563;52.416;13.548;2023-04-08T01:08:50;101669.84;;;4.61;100.00
68594;BME280;55563;52.416;13.548;2023-04-08T01:10:51;101670.88;;;4.60;100.00
68594;BME280;55563;52.416;13.548;2023-04-08T01:12:58;101671.28;;;4.64;100.00
68594;BME280;55563;52.416;13.548;2023-04-08T01:15:05;101680.28;;;4.68;100.00
68594;BME280;55563;52.416;13.548;2023-04-08T01:17:07;101682.91;;;4.68;100.00
68594;BME280;55563;52.416;13.548;2023-04-08T01:19:19;101681.69;;;4.70;100.00
68594;BME280;55563;52.416;13.548;2023-04-08T01:21:23;101679.72;;;4.72;100.00
68594;BME280;55563;52.416;13.548;2023-04-08T01:23:52;101685.09;;;4.71;100.00
68594;BME280;55563;52.416;13.548;2023-04-08T01:25:55;101687.88;;;4.63;100.00
68594;BME280;55563;52.416;13.548;2023-04-08T01:27:57;101690.72;;;4.68;100.00
68594;BME280;55563;52.416;13.548;2023-04-08T01:30:00;101684.50;;;4.69;100.00
68594;BME280;55563;52.416;13.548;2023-04-08T01:32:06;101691.53;;;4.68;100.00
68594;BME280;55563;52.416;13.548;2023-04-08T01:34:08;101690.53;;;4.69;100.00
68594;BME280;55563;52.416;13.548;2023-04-08T01:36:10;101681.69;;;4.70;100.00
68594;BME280;55563;52.416;13.548;2023-04-08T01:38:13;101683.31;;;4.71;100.00
68594;BME280;55563;52.416;13.548;2023-04-08T01:40:15;101689.13;;;4.73;100.00
68594;BME280;55563;52.416;13.548;2023-04-08T01:42:17;101692.31;;;4.69;100.00
68594;BME280;55563;52.416;13.548;2023-04-08T01:44:19;101691.53;;;4.68;100.00
68594;BME280;55563;52.416;13.548;2023-04-08T01:46:20;101693.13;;;4.69;100.00
68594;BME280;55563;52.416;13.548;2023-04-08T01:48:22;101704.72;;;4.67;100.00
68594;BME280;55563;52.416;13.548;2023-04-08T01:50:24;101689.91;;;4.67;100.00
68594;BME280;55563;52.416;13.548;2023-04-08T01:52:25;101689.09;;;4.67;100.00
68594;BME280;55563;52.416;13.548;2023-04-08T01:54:26;101687.31;;;4.67;100.00
68594;BME280;55563;52.416;13.548;2023-04-08T01:56:29;101692.13;;;4.70;100.00
68594;BME280;55563;52.416;13.548;2023-04-08T01:58:38;101687.94;;;4.69;100.00
68594;BME280;55563;52.416;13.548;2023-04-08T02:00:40;101693.53;;;4.73;100.00
68594;BME280;55563;52.416;13.548;2023-04-08T02:02:43;101690.53;;;4.69;100.00
68594;BME280;55563;52.416;13.548;2023-04-08T02:04:46;101693.31;;;4.68;100.00
68594;BME280;55563;52.416;13.548;2023-04-08T02:06:47;101702.13;;;4.67;100.00
68594;BME280;55563;52.416;13.548;2023-04-08T02:08:47;101699.69;;;4.65;100.00
68594;BME280;55563;52.416;13.548;2023-04-08T02:10:48;101705.13;;;4.64;100.00
68594;BME280;55563;52.416;13.548;2023-04-08T02:12:49;101705.91;;;4.64;100.00
68594;BME280;55563;52.416;13.548;2023-04-08T02:14:52;101707.94;;;4.69;100.00
68594;BME280;55563;52.416;13.548;2023-04-08T02:16:57;101707.56;;;4.72;100.00
68594;BME280;55563;52.416;13.548;2023-04-08T02:19:09;101700.38;;;4.74;100.00
68594;BME280;55563;52.416;13.548;2023-04-08T02:21:13;101698.53;;;4.68;100.00
68594;BME280;55563;52.416;13.548;2023-04-08T02:23:19;101703.72;;;4.68;100.00
68594;BME280;55563;52.416;13.548;2023-04-08T02:25:23;101703.34;;;4.71;100.00
68594;BME280;55563;52.416;13.548;2023-04-08T02:27:25;101712.72;;;4.65;100.00
68594;BME280;55563;52.416;13.548;2023-04-08T02:29:29;101714.53;;;4.65;100.00
68594;BME280;55563;52.416;13.548;2023-04-08T02:31:30;101710.31;;;4.64;100.00
68594;BME280;55563;52.416;13.548;2023-04-08T02:33:33;101715.53;;;4.64;100.00
68594;BME280;55563;52.416;13.548;2023-04-08T02:35:35;101720.34;;;4.67;100.00
68594;BME280;55563;52.416;13.548;2023-04-08T02:37:35;101719.94;;;4.63;100.00
68594;BME280;55563;52.416;13.548;2023-04-08T02:39:37;101725.31;;;4.62;100.00
68594;BME280;55563;52.416;13.548;2023-04-08T02:41:38;101725.53;;;4.60;100.00
68594;BME280;55563;52.416;13.548;2023-04-08T02:43:38;101725.31;;;4.62;100.00
68594;BME280;55563;52.416;13.548;2023-04-08T02:45:41;101726.53;;;4.59;100.00
68594;BME280;55563;52.416;13.548;2023-04-08T02:47:42;101729.13;;;4.59;100.00
68594;BME280;55563;52.416;13.548;2023-04-08T02:49:43;101728.69;;;4.56;100.00
68594;BME280;55563;52.416;13.548;2023-04-08T02:51:44;101736.94;;;4.59;100.00
68594;BME280;55563;52.416;13.548;2023-04-08T02:53:44;101726.88;;;4.56;100.00
68594;BME280;55563;52.416;13.548;2023-04-08T02:55:45;101732.31;;;4.55;100.00
68594;BME280;55563;52.416;13.548;2023-04-08T02:57:46;101735.72;;;4.55;100.00
68594;BME280;55563;52.416;13.548;2023-04-08T02:59:47;101733.88;;;4.56;100.00
68594;BME280;55563;52.416;13.548;2023-04-08T03:01:48;101731.09;;;4.57;100.00
68594;BME280;55563;52.416;13.548;2023-04-08T03:03:48;101734.34;;;4.59;100.00
68594;BME280;55563;52.416;13.548;2023-04-08T03:05:49;101733.88;;;4.56;100.00
68594;BME280;55563;52.416;13.548;2023-04-08T03:07:50;101736.50;;;4.56;100.00
68594;BME280;55563;52.416;13.548;2023-04-08T03:09:50;101739.09;;;4.56;100.00
68594;BME280;55563;52.416;13.548;2023-04-08T03:11:51;101740.53;;;4.58;100.00
68594;BME280;55563;52.416;13.548;2023-04-08T03:13:54;101743.31;;;4.57;100.00
68594;BME280;55563;52.416;13.548;2023-04-08T03:15:54;101747.94;;;4.55;100.00
68594;BME280;55563;52.416;13.548;2023-04-08T03:17:55;101741.53;;;4.57;100.00
68594;BME280;55563;52.416;13.548;2023-04-08T03:19:55;101753.94;;;4.55;0.00
68594;BME280;55563;52.416;13.548;2023-04-08T03:21:56;101750.53;;;4.55;100.00
68594;BME280;55563;52.416;13.548;2023-04-08T03:23:57;101753.94;;;4.55;100.00
68594;BME280;55563;52.416;13.548;2023-04-08T03:25:57;101760.94;;;4.55;100.00
68594;BME280;55563;52.416;13.548;2023-04-08T03:27:58;101758.94;;;4.57;100.00
68594;BME280;55563;52.416;13.548;2023-04-08T03:29:59;101752.75;;;4.58;100.00
68594;BME280;55563;52.416;13.548;2023-04-08T03:31:59;101759.50;;;4.52;100.00
68594;BME280;55563;52.416;13.548;2023-04-08T03:34:00;101757.31;;;4.56;100.00
68594;BME280;55563;52.416;13.548;2023-04-08T03:36:01;101752.75;;;4.58;100.00
68594;BME280;55563;52.416;13.548;2023-04-08T03:38:01;101755.75;;;4.61;100.00
68594;BME280;55563;52.416;13.548;2023-04-08T03:40:02;101762.41;;;4.64;100.00
68594;BME280;55563;52.416;13.548;2023-04-08T03:42:03;101755.16;;;4.59;100.00
68594;BME280;55563;52.416;13.548;2023-04-08T03:44:04;101767.38;;;4.59;100.00
68594;BME280;55563;52.416;13.548;2023-04-08T03:46:05;101772.59;;;4.59;100.00
68594;BME280;55563;52.416;13.548;2023-04-08T03:48:06;101769.34;;;4.57;100.00
68594;BME280;55563;52.416;13.548;2023-04-08T03:50:07;101766.16;;;4.55;100.00
68594;BME280;55563;52.416;13.548;2023-04-08T03:52:07;101779.59;;;4.58;100.00
68594;BME280;55563;52.416;13.548;2023-04-08T03:54:08;101771.94;;;4.57;100.00
68594;BME280;55563;52.416;13.548;2023-04-08T03:56:09;101783.00;;;4.59;100.00
68594;BME280;55563;52.416;13.548;2023-04-08T03:58:09;101780.22;;;4.60;100.00
68594;BME280;55563;52.416;13.548;2023-04-08T04:00:11;101783.59;;;4.61;100.00
68594;BME280;55563;52.416;13.548;2023-04-08T04:02:15;101780.97;;;4.61;100.00
68594;BME280;55563;52.416;13.548;2023-04-08T04:04:16;101781.44;;;4.64;100.00
68594;BME280;55563;52.416;13.548;2023-04-08T04:06:16;101782.00;;;4.60;100.00
68594;BME280;55563;52.416;13.548;2023-04-08T04:08:17;101787.00;;;4.61;100.00
68594;BME280;55563;52.416;13.548;2023-04-08T04:10:18;101785.41;;;4.60;100.00
68594;BME280;55563;52.416;13.548;2023-04-08T04:12:18;101789.59;;;4.61;100.00
68594;BME280;55563;52.416;13.548;2023-04-08T04:14:19;101786.63;;;4.64;100.00
68594;BME280;55563;52.416;13.548;2023-04-08T04:16:20;101787.81;;;4.62;100.00
68594;BME280;55563;52.416;13.548;2023-04-08T04:18:20;101790.97;;;4.57;100.00
68594;BME280;55563;52.416;13.548;2023-04-08T04:20:21;101793.00;;;4.62;100.00
68594;BME280;55563;52.416;13.548;2023-04-08T04:22:23;101801.25;;;4.65;100.00
68594;BME280;55563;52.416;13.548;2023-04-08T04:24:24;101798.22;;;4.62;100.00
68594;BME280;55563;52.416;13.548;2023-04-08T04:26:25;101799.44;;;4.66;100.00
68594;BME280;55563;52.416;13.548;2023-04-08T04:28:25;101803.66;;;4.67;100.00
68594;BME280;55563;52.416;13.548;2023-04-08T04:30:26;101805.69;;;4.65;100.00
68594;BME280;55563;52.416;13.548;2023-04-08T04:32:27;101802.44;;;4.63;100.00
68594;BME280;55563;52.416;13.548;2023-04-08T04:34:28;101810.06;;;4.64;100.00
68594;BME280;55563;52.416;13.548;2023-04-08T04:36:28;101807.25;;;4.66;100.00
68594;BME280;55563;52.416;13.548;2023-04-08T04:38:29;101809.69;;;4.67;100.00
68594;BME280;55563;52.416;13.548;2023-04-08T04:40:30;101811.66;;;4.65;100.00
68594;BME280;55563;52.416;13.548;2023-04-08T04:42:31;101810.66;;;4.66;100.00
68594;BME280;55563;52.416;13.548;2023-04-08T04:44:32;101820.91;;;4.68;100.00
68594;BME280;55563;52.416;13.548;2023-04-08T04:46:32;101816.69;;;4.67;100.00
68594;BME280;55563;52.416;13.548;2023-04-08T04:48:34;101829.53;;;4.68;100.00
68594;BME280;55563;52.416;13.548;2023-04-08T04:50:35;101825.72;;;4.71;100.00
68594;BME280;55563;52.416;13.548;2023-04-08T04:52:36;101836.94;;;4.71;100.00
68594;BME280;55563;52.416;13.548;2023-04-08T04:54:36;101835.53;;;4.69;100.00
68594;BME280;55563;52.416;13.548;2023-04-08T04:56:37;101835.97;;;4.72;100.00
68594;BME280;55563;52.416;13.548;2023-04-08T04:58:38;101828.97;;;4.73;100.00
68594;BME280;55563;52.416;13.548;2023-04-08T05:00:38;101839.78;;;4.76;100.00
68594;BME280;55563;52.416;13.548;2023-04-08T05:02:39;101838.16;;;4.75;100.00
68594;BME280;55563;52.416;13.548;2023-04-08T05:04:40;101841.34;;;4.71;100.00
68594;BME280;55563;52.416;13.548;2023-04-08T05:06:41;101833.34;;;4.72;100.00
68594;BME280;55563;52.416;13.548;2023-04-08T05:08:42;101845.81;;;4.77;100.00
68594;BME280;55563;52.416;13.548;2023-04-08T05:10:43;101838.16;;;4.75;100.00
68594;BME280;55563;52.416;13.548;2023-04-08T05:12:46;101829.19;;;4.78;100.00
68594;BME280;55563;52.416;13.548;2023-04-08T05:14:50;101835.00;;;4.80;100.00
68594;BME280;55563;52.416;13.548;2023-04-08T05:16:52;101839.38;;;4.73;100.00
68594;BME280;55563;52.416;13.548;2023-04-08T05:18:52;101843.19;;;4.77;100.00
68594;BME280;55563;52.416;13.548;2023-04-08T05:20:53;101847.41;;;4.78;100.00
68594;BME280;55563;52.416;13.548;2023-04-08T05:22:53;101844.44;;;4.81;100.00
68594;BME280;55563;52.416;13.548;2023-04-08T05:24:54;101854.25;;;4.79;100.00
68594;BME280;55563;52.416;13.548;2023-04-08T05:26:55;101855.09;;;4.86;100.00
68594;BME280;55563;52.416;13.548;2023-04-08T05:29:35;101854.31;;;4.92;100.00
68594;BME280;55563;52.416;13.548;2023-04-08T05:31:36;101858.91;;;4.90;100.00
68594;BME280;55563;52.416;13.548;2023-04-08T05:33:37;101856.53;;;4.95;100.00
68594;BME280;55563;52.416;13.548;2023-04-08T05:35:38;101862.56;;;4.96;100.00
68594;BME280;55563;52.416;13.548;2023-04-08T05:37:38;101868.41;;;4.98;100.00
68594;BME280;55563;52.416;13.548;2023-04-08T05:39:39;101863.38;;;4.96;100.00
68594;BME280;55563;52.416;13.548;2023-04-08T05:41:40;101874.19;;;5.00;100.00
68594;BME280;55563;52.416;13.548;2023-04-08T05:43:41;101883.25;;;5.04;100.00
68594;BME280;55563;52.416;13.548;2023-04-08T05:45:41;101873.25;;;5.07;100.00
68594;BME280;55563;52.416;13.548;2023-04-08T05:47:42;101873.84;;;5.03;100.00
68594;BME280;55563;52.416;13.548;2023-04-08T05:49:43;101873.44;;;5.06;100.00
68594;BME280;55563;52.416;13.548;2023-04-08T05:51:43;101872.06;;;5.10;100.00
68594;BME280;55563;52.416;13.548;2023-04-08T05:53:44;101876.22;;;5.04;100.00
68594;BME280;55563;52.416;13.548;2023-04-08T05:55:46;101876.50;;;5.16;100.00
68594;BME280;55563;52.416;13.548;2023-04-08T05:57:47;101871.69;;;5.13;100.00
68594;BME280;55563;52.416;13.548;2023-04-08T05:59:47;101876.28;;;5.11;100.00
68594;BME280;55563;52.416;13.548;2023-04-08T06:01:48;101881.09;;;5.14;100.00
68594;BME280;55563;52.416;13.548;2023-04-08T06:03:48;101880.34;;;5.20;100.00
68594;BME280;55563;52.416;13.548;2023-04-08T06:05:49;101881.56;;;5.24;100.00
68594;BME280;55563;52.416;13.548;2023-04-08T06:07:50;101882.78;;;5.28;100.00
68594;BME280;55563;52.416;13.548;2023-04-08T06:09:50;101888.81;;;5.28;100.00
68594;BME280;55563;52.416;13.548;2023-04-08T06:11:51;101893.03;;;5.30;100.00
68594;BME280;55563;52.416;13.548;2023-04-08T06:13:52;101887.41;;;5.33;100.00
68594;BME280;55563;52.416;13.548;2023-04-08T06:15:52;101897.47;;;5.36;100.00
68594;BME280;55563;52.416;13.548;2023-04-08T06:17:53;101890.88;;;5.40;100.00
68594;BME280;55563;52.416;13.548;2023-04-08T06:19:54;101895.47;;;5.38;100.00
68594;BME280;55563;52.416;13.548;2023-04-08T06:21:54;101895.06;;;5.34;100.00
68594;BME280;55563;52.416;13.548;2023-04-08T06:23:58;101891.47;;;5.35;100.00
68594;BME280;55563;52.416;13.548;2023-04-08T06:25:58;101898.06;;;5.31;100.00
68594;BME280;55563;52.416;13.548;2023-04-08T06:27:59;101906.69;;;5.32;100.00
68594;BME280;55563;52.416;13.548;2023-04-08T06:30:00;101900.31;;;5.41;100.00
68594;BME280;55563;52.416;13.548;2023-04-08T06:32:01;101906.94;;;5.43;100.00
68594;BME280;55563;52.416;13.548;2023-04-08T06:34:01;101898.75;;;5.46;100.00
68594;BME280;55563;52.416;13.548;2023-04-08T06:36:03;101907.09;;;5.35;100.00
68594;BME280;55563;52.416;13.548;2023-04-08T06:38:04;101911.56;;;5.41;100.00
68594;BME280;55563;52.416;13.548;2023-04-08T06:40:05;101910.88;;;5.33;100.00
68594;BME280;55563;52.416;13.548;2023-04-08T06:42:06;101913.94;;;5.43;100.00
68594;BME280;55563;52.416;13.548;2023-04-08T06:44:18;101920.59;;;5.52;100.00
68594;BME280;55563;52.416;13.548;2023-04-08T06:46:19;101922.03;;;5.54;100.00
68594;BME280;55563;52.416;13.548;2023-04-08T06:48:20;101925.25;;;5.56;100.00
68594;BME280;55563;52.416;13.548;2023-04-08T06:50:22;101927.72;;;5.64;100.00
68594;BME280;55563;52.416;13.548;2023-04-08T06:52:23;101929.69;;;5.56;100.00
68594;BME280;55563;52.416;13.548;2023-04-08T06:54:23;101931.03;;;5.52;100.00
68594;BME280;55563;52.416;13.548;2023-04-08T06:56:24;101938.69;;;5.53;100.00
68594;BME280;55563;52.416;13.548;2023-04-08T06:58:25;101946.97;;;5.63;100.00
68594;BME280;55563;52.416;13.548;2023-04-08T07:00:26;101941.19;;;5.75;100.00
68594;BME280;55563;52.416;13.548;2023-04-08T07:02:27;101941.78;;;5.77;100.00
68594;BME280;55563;52.416;13.548;2023-04-08T07:04:27;101945.84;;;5.79;100.00
68594;BME280;55563;52.416;13.548;2023-04-08T07:06:28;101947.59;;;5.72;100.00
68594;BME280;55563;52.416;13.548;2023-04-08T07:08:29;101947.31;;;5.88;100.00
68594;BME280;55563;52.416;13.548;2023-04-08T07:10:29;101948.13;;;5.89;100.00
68594;BME280;55563;52.416;13.548;2023-04-08T07:12:30;101961.16;;;5.89;100.00
68594;BME280;55563;52.416;13.548;2023-04-08T07:14:31;101954.72;;;5.91;100.00
68594;BME280;55563;52.416;13.548;2023-04-08T07:16:31;101958.19;;;5.98;100.00
68594;BME280;55563;52.416;13.548;2023-04-08T07:18:32;101955.00;;;6.09;100.00
68594;BME280;55563;52.416;13.548;2023-04-08T07:20:33;101960.22;;;6.09;100.00
68594;BME280;55563;52.416;13.548;2023-04-08T07:22:37;101964.44;;;6.10;100.00
68594;BME280;55563;52.416;13.548;2023-04-08T07:24:38;101959.44;;;6.16;100.00
68594;BME280;55563;52.416;13.548;2023-04-08T07:26:41;101953.63;;;6.13;100.00
68594;BME280;55563;52.416;13.548;2023-04-08T07:28:42;101956.44;;;6.19;100.00
68594;BME280;55563;52.416;13.548;2023-04-08T07:30:43;101956.06;;;6.22;100.00
68594;BME280;55563;52.416;13.548;2023-04-08T07:32:43;101969.13;;;6.28;100.00
68594;BME280;55563;52.416;13.548;2023-04-08T07:34:44;101963.09;;;6.28;100.00
68594;BME280;55563;52.416;13.548;2023-04-08T07:36:44;101963.50;;;6.31;100.00
68594;BME280;55563;52.416;13.548;2023-04-08T07:38:45;101966.31;;;6.43;100.00
68594;BME280;55563;52.416;13.548;2023-04-08T07:40:46;101962.94;;;6.42;100.00
68594;BME280;55563;52.416;13.548;2023-04-08T07:42:47;101967.75;;;6.45;100.00
68594;BME280;55563;52.416;13.548;2023-04-08T07:44:48;101971.38;;;6.38;100.00
68594;BME280;55563;52.416;13.548;2023-04-08T07:46:49;101968.38;;;6.47;100.00
68594;BME280;55563;52.416;13.548;2023-04-08T07:48:51;101977.63;;;6.70;100.00
68594;BME280;55563;52.416;13.548;2023-04-08T07:50:52;101978.44;;;6.70;100.00
68594;BME280;55563;52.416;13.548;2023-04-08T07:52:52;101973.81;;;6.66;100.00
68594;BME280;55563;52.416;13.548;2023-04-08T07:54:53;101977.63;;;6.70;100.00
68594;BME280;55563;52.416;13.548;2023-04-08T07:56:53;101976.25;;;6.80;100.00
68594;BME280;55563;52.416;13.548;2023-04-08T07:58:54;101968.78;;;6.77;100.00
68594;BME280;55563;52.416;13.548;2023-04-08T08:00:54;101967.81;;;6.85;100.00
68594;BME280;55563;52.416;13.548;2023-04-08T08:02:56;101967.16;;;6.76;100.00
68594;BME280;55563;52.416;13.548;2023-04-08T08:04:57;101972.81;;;6.93;100.00
68594;BME280;55563;52.416;13.548;2023-04-08T08:06:57;101979.84;;;6.79;100.00
68594;BME280;55563;52.416;13.548;2023-04-08T08:08:59;101976.66;;;6.90;100.00
68594;BME280;55563;52.416;13.548;2023-04-08T08:10:59;101974.84;;;6.97;100.00
68594;BME280;55563;52.416;13.548;2023-04-08T08:13:00;101981.88;;;6.97;100.00
68594;BME280;55563;52.416;13.548;2023-04-08T08:15:01;101977.44;;;6.91;100.00
68594;BME280;55563;52.416;13.548;2023-04-08T08:17:02;101983.69;;;7.10;100.00
68594;BME280;55563;52.416;13.548;2023-04-08T08:19:03;101974.44;;;7.14;100.00
68594;BME280;55563;52.416;13.548;2023-04-08T08:21:07;101980.25;;;7.16;100.00
68594;BME280;55563;52.416;13.548;2023-04-08T08:23:08;101978.47;;;7.10;100.00
68594;BME280;55563;52.416;13.548;2023-04-08T08:25:09;101983.69;;;7.10;100.00
68594;BME280;55563;52.416;13.548;2023-04-08T08:27:09;101983.50;;;7.05;100.00
68594;BME280;55563;52.416;13.548;2023-04-08T08:29:10;101985.91;;;7.19;100.00
68594;BME280;55563;52.416;13.548;2023-04-08T08:31:11;101991.09;;;7.26;100.00
68594;BME280;55563;52.416;13.548;2023-04-08T08:33:12;101987.28;;;7.02;100.00
68594;BME280;55563;52.416;13.548;2023-04-08T08:35:12;101988.91;;;7.23;100.00
68594;BME280;55563;52.416;13.548;2023-04-08T08:37:13;101985.88;;;7.32;100.00
68594;BME280;55563;52.416;13.548;2023-04-08T08:39:14;101985.88;;;7.32;100.00
68594;BME280;55563;52.416;13.548;2023-04-08T08:41:14;101991.69;;;7.41;100.00
68594;BME280;55563;52.416;13.548;2023-04-08T08:43:15;101994.94;;;7.23;100.00
68594;BME280;55563;52.416;13.548;2023-04-08T08:45:18;102006.81;;;7.19;100.00
68594;BME280;55563;52.416;13.548;2023-04-08T08:47:18;102011.00;;;7.20;100.00
68594;BME280;55563;52.416;13.548;2023-04-08T08:49:19;102003.38;;;7.38;100.00
68594;BME280;55563;52.416;13.548;2023-04-08T08:51:20;102014.81;;;7.44;100.00
68594;BME280;55563;52.416;13.548;2023-04-08T08:53:28;102005.78;;;7.33;100.00
68594;BME280;55563;52.416;13.548;2023-04-08T08:55:30;102018.81;;;7.53;100.00
68594;BME280;55563;52.416;13.548;2023-04-08T08:57:34;102016.34;;;7.84;100.00
68594;BME280;55563;52.416;13.548;2023-04-08T08:59:35;102013.16;;;7.76;100.00
68594;BME280;55563;52.416;13.548;2023-04-08T09:01:38;102016.16;;;7.79;100.00
68594;BME280;55563;52.416;13.548;2023-04-08T09:03:41;102013.53;;;7.86;100.00
68594;BME280;55563;52.416;13.548;2023-04-08T09:05:52;102015.75;;;7.82;100.00
68594;BME280;55563;52.416;13.548;2023-04-08T09:07:53;102011.94;;;7.85;100.00
68594;BME280;55563;52.416;13.548;2023-04-08T09:09:55;102016.09;;;7.99;100.00
68594;BME280;55563;52.416;13.548;2023-04-08T09:12:02;102017.34;;;7.90;100.00
68594;BME280;55563;52.416;13.548;2023-04-08T09:14:04;102016.34;;;7.78;100.00
68594;BME280;55563;52.416;13.548;2023-04-08T09:16:08;102018.91;;;7.98;100.00
68594;BME280;55563;52.416;13.548;2023-04-08T09:18:24;102021.59;;;7.84;100.00
68594;BME280;55563;52.416;13.548;2023-04-08T09:20:25;102033.50;;;7.74;100.00
68594;BME280;55563;52.416;13.548;2023-04-08T09:22:26;102025.03;;;7.78;100.00
68594;BME280;55563;52.416;13.548;2023-04-08T09:24:29;102029.19;;;7.99;100.00
68594;BME280;55563;52.416;13.548;2023-04-08T09:26:30;102023.75;;;8.01;100.00
68594;BME280;55563;52.416;13.548;2023-04-08T09:28:31;102034.81;;;8.03;100.00
68594;BME280;55563;52.416;13.548;2023-04-08T09:30:33;102032.72;;;8.31;100.00
68594;BME280;55563;52.416;13.548;2023-04-08T09:32:55;102026.44;;;8.39;100.00
68594;BME280;55563;52.416;13.548;2023-04-08T09:34:57;102024.13;;;8.55;100.00
68594;BME280;55563;52.416;13.548;2023-04-08T09:37:08;102033.13;;;8.66;100.00
68594;BME280;55563;52.416;13.548;2023-04-08T09:39:26;102030.91;;;8.69;100.00
68594;BME280;55563;52.416;13.548;2023-04-08T09:41:36;102031.78;;;8.57;100.00
68594;BME280;55563;52.416;13.548;2023-04-08T09:43:53;102035.69;;;8.41;100.00
68594;BME280;55563;52.416;13.548;2023-04-08T09:46:03;102036.03;;;8.58;100.00
68594;BME280;55563;52.416;13.548;2023-04-08T09:48:32;102034.66;;;8.49;100.00
68594;BME280;55563;52.416;13.548;2023-04-08T09:50:47;102030.81;;;8.45;100.00
68594;BME280;55563;52.416;13.548;2023-04-08T09:52:57;102039.50;;;8.45;100.00
68594;BME280;55563;52.416;13.548;2023-04-08T09:55:03;102036.03;;;8.58;100.00
68594;BME280;55563;52.416;13.548;2023-04-08T09:57:09;102043.94;;;8.45;100.00
68594;BME280;55563;52.416;13.548;2023-04-08T09:59:13;102032.94;;;8.67;100.00
68594;BME280;55563;52.416;13.548;2023-04-08T10:01:23;102035.66;;;8.48;100.00
68594;BME280;55563;52.416;13.548;2023-04-08T10:03:28;102040.69;;;8.49;100.00
68594;BME280;55563;52.416;13.548;2023-04-08T10:05:32;102040.84;;;8.54;100.00
68594;BME280;55563;52.416;13.548;2023-04-08T10:07:34;102040.41;;;8.64;100.00
68594;BME280;55563;52.416;13.548;2023-04-08T10:09:35;102043.44;;;8.67;100.00
68594;BME280;55563;52.416;13.548;2023-04-08T10:11:37;102044.53;;;8.78;100.00
68594;BME280;55563;52.416;13.548;2023-04-08T10:13:38;102041.69;;;8.86;100.00
68594;BME280;55563;52.416;13.548;2023-04-08T10:15:39;102036.38;;;8.93;100.00
68594;BME280;55563;52.416;13.548;2023-04-08T10:17:42;102041.50;;;8.81;100.00
68594;BME280;55563;52.416;13.548;2023-04-08T10:19:43;102041.63;;;8.93;100.00
68594;BME280;55563;52.416;13.548;2023-04-08T10:21:43;102041.25;;;8.89;100.00
68594;BME280;55563;52.416;13.548;2023-04-08T10:23:53;102038.34;;;8.97;100.00
68594;BME280;55563;52.416;13.548;2023-04-08T10:25:54;102040.69;;;9.37;100.00
68594;BME280;55563;52.416;13.548;2023-04-08T10:27:55;102041.53;;;9.31;100.00
68594;BME280;55563;52.416;13.548;2023-04-08T10:29:56;102040.94;;;9.53;100.00
68594;BME280;55563;52.416;13.548;2023-04-08T10:31:57;102037.56;;;9.22;100.00
68594;BME280;55563;52.416;13.548;2023-04-08T10:34:14;102037.66;;;9.58;100.00